createdAt,value
2023-03-06T00:01:10.158Z,3.12
2023-03-06T00:03:40.208Z,3.13
2023-03-06T00:06:11.153Z,3.22
2023-03-06T00:08:40.358Z,3.22
2023-03-06T00:11:08.351Z,3.30
2023-03-06T00:13:37.330Z,3.19
2023-03-06T00:16:07.022Z,3.26
2023-03-06T00:18:35.866Z,3.26
2023-03-06T00:21:08.636Z,3.09
2023-03-06T00:23:36.981Z,3.13
2023-03-06T00:26:08.358Z,3.03
2023-03-06T00:28:37.083Z,3.10
2023-03-06T00:31:05.502Z,3.01
2023-03-06T00:33:34.475Z,2.95
2023-03-06T00:36:07.149Z,2.98
2023-03-06T00:38:36.108Z,2.92
2023-03-06T00:41:08.915Z,2.88
2023-03-06T00:43:37.720Z,2.94
2023-03-06T00:46:06.745Z,2.96
2023-03-06T00:48:34.848Z,2.84
2023-03-06T00:51:03.272Z,2.81
2023-03-06T00:53:32.612Z,2.89
2023-03-06T00:56:00.535Z,2.85
2023-03-06T00:58:29.485Z,2.87
2023-03-06T01:00:57.830Z,2.80
2023-03-06T01:03:26.262Z,2.78
2023-03-06T01:05:54.652Z,2.77
2023-03-06T01:08:22.689Z,2.74
2023-03-06T01:10:52.580Z,2.74
2023-03-06T01:13:20.382Z,2.77
2023-03-06T01:15:48.348Z,2.81
2023-03-06T01:18:17.263Z,2.83
2023-03-06T01:20:45.213Z,2.88
2023-03-06T01:23:13.649Z,2.89
2023-03-06T01:25:42.480Z,2.91
2023-03-06T01:28:11.758Z,2.89
2023-03-06T01:30:40.617Z,2.89
2023-03-06T01:33:08.521Z,2.87
2023-03-06T01:35:39.554Z,2.89
2023-03-06T01:38:07.564Z,2.89
2023-03-06T01:40:38.845Z,2.94
2023-03-06T01:43:13.594Z,2.91
2023-03-06T01:46:21.752Z,2.91
2023-03-06T01:48:56.120Z,2.88
2023-03-06T01:51:28.352Z,2.91
2023-03-06T01:53:59.257Z,2.94
2023-03-06T01:56:27.716Z,2.87
2023-03-06T01:58:58.158Z,2.88
2023-03-06T02:01:27.553Z,2.87
2023-03-06T02:03:56.715Z,2.84
2023-03-06T02:06:25.136Z,2.89
2023-03-06T02:08:55.704Z,2.77
2023-03-06T02:11:25.809Z,2.80
2023-03-06T02:13:57.148Z,2.77
2023-03-06T02:16:28.853Z,2.81
2023-03-06T02:18:59.937Z,2.75
2023-03-06T02:21:32.607Z,2.68
2023-03-06T02:24:10.299Z,2.83
2023-03-06T02:26:43.413Z,2.78
2023-03-06T02:29:13.335Z,2.67
2023-03-06T02:31:41.512Z,2.80
2023-03-06T02:34:51.645Z,2.89
2023-03-06T02:37:19.677Z,2.67
2023-03-06T02:39:51.286Z,2.71
2023-03-06T02:42:23.106Z,2.81
2023-03-06T02:44:53.935Z,2.83
2023-03-06T02:47:22.795Z,2.94
2023-03-06T02:49:51.625Z,2.91
2023-03-06T02:52:19.681Z,3.02
2023-03-06T02:54:48.055Z,2.96
2023-03-06T02:57:17.205Z,3.01
2023-03-06T02:59:47.420Z,2.87
2023-03-06T03:02:17.261Z,2.83
2023-03-06T03:04:45.817Z,2.84
2023-03-06T03:07:13.814Z,2.83
2023-03-06T03:09:44.977Z,2.80
2023-03-06T03:12:14.558Z,2.74
2023-03-06T03:14:42.974Z,2.67
2023-03-06T03:17:12.680Z,2.53
2023-03-06T03:19:40.806Z,2.57
2023-03-06T03:22:09.365Z,2.54
2023-03-06T03:24:37.350Z,2.47
2023-03-06T03:27:05.668Z,2.44
2023-03-06T03:29:34.685Z,2.50
2023-03-06T03:32:02.652Z,2.50
2023-03-06T03:34:32.712Z,2.49
2023-03-06T03:37:01.269Z,2.54
2023-03-06T03:39:29.362Z,2.56
2023-03-06T03:41:58.491Z,2.54
2023-03-06T03:44:27.498Z,2.44
2023-03-06T03:46:56.183Z,2.51
2023-03-06T03:49:26.355Z,2.49
2023-03-06T03:51:56.404Z,2.51
2023-03-06T03:54:27.158Z,2.41
2023-03-06T03:56:55.799Z,2.44
2023-03-06T03:59:31.702Z,2.49
2023-03-06T04:02:13.103Z,2.43
2023-03-06T04:04:50.656Z,2.46
2023-03-06T04:07:20.171Z,2.39
2023-03-06T04:09:49.150Z,2.36
2023-03-06T04:12:19.129Z,2.37
2023-03-06T04:14:48.030Z,2.33
2023-03-06T04:17:16.182Z,2.33
2023-03-06T04:19:46.086Z,2.33
2023-03-06T04:22:14.011Z,2.32
2023-03-06T04:24:44.607Z,2.23
2023-03-06T04:27:13.464Z,2.18
2023-03-06T04:29:41.559Z,2.16
2023-03-06T04:32:10.338Z,2.13
2023-03-06T04:34:39.080Z,2.19
2023-03-06T04:37:07.757Z,2.15
2023-03-06T04:39:36.135Z,2.29
2023-03-06T04:42:05.870Z,2.29
2023-03-06T04:44:33.768Z,2.33
2023-03-06T04:47:02.686Z,2.32
2023-03-06T04:49:30.588Z,2.40
2023-03-06T04:51:59.120Z,2.37
2023-03-06T04:54:27.649Z,2.50
2023-03-06T04:56:55.621Z,2.54
2023-03-06T04:59:25.390Z,2.58
2023-03-06T05:01:54.312Z,2.60
2023-03-06T05:04:22.290Z,2.51
2023-03-06T05:06:51.285Z,2.64
2023-03-06T05:09:19.632Z,2.58
2023-03-06T05:11:48.024Z,2.62
2023-03-06T05:14:16.355Z,2.68
2023-03-06T05:16:45.724Z,2.70
2023-03-06T05:19:14.596Z,2.65
2023-03-06T05:21:42.534Z,2.73
2023-03-06T05:24:11.093Z,2.65
2023-03-06T05:26:39.626Z,2.64
2023-03-06T05:29:07.773Z,2.73
2023-03-06T05:31:35.696Z,2.68
2023-03-06T05:34:05.979Z,2.67
2023-03-06T05:36:33.881Z,2.61
2023-03-06T05:39:02.984Z,2.50
2023-03-06T05:41:30.958Z,2.51
2023-03-06T05:43:59.587Z,2.49
2023-03-06T05:46:28.152Z,2.43
2023-03-06T05:48:57.534Z,2.37
2023-03-06T05:51:28.154Z,2.32
2023-03-06T05:53:56.131Z,2.29
2023-03-06T05:56:24.080Z,2.29
2023-03-06T05:58:52.919Z,2.28
2023-03-06T06:01:21.853Z,2.32
2023-03-06T06:03:50.328Z,2.37
2023-03-06T06:06:19.316Z,2.40
2023-03-06T06:08:48.666Z,2.44
2023-03-06T06:11:18.468Z,2.46
2023-03-06T06:13:47.284Z,2.50
2023-03-06T06:16:16.836Z,2.47
2023-03-06T06:18:45.050Z,2.46
2023-03-06T06:21:16.441Z,2.43
2023-03-06T06:23:44.612Z,2.43
2023-03-06T06:26:13.858Z,2.47
2023-03-06T06:28:42.697Z,2.40
2023-03-06T06:31:12.228Z,2.50
2023-03-06T06:33:41.455Z,2.54
2023-03-06T06:36:17.464Z,2.46
2023-03-06T06:38:45.591Z,2.60
2023-03-06T06:44:08.531Z,2.49
2023-03-06T06:49:26.221Z,2.50
2023-03-06T06:51:54.586Z,2.58
2023-03-06T06:54:22.488Z,2.67
2023-03-06T06:56:51.801Z,2.60
2023-03-06T06:59:24.050Z,2.65
2023-03-06T07:01:52.804Z,2.74
2023-03-06T07:04:21.023Z,2.68
2023-03-06T07:06:49.845Z,2.70
2023-03-06T07:09:18.172Z,2.74
2023-03-06T07:11:46.132Z,2.83
2023-03-06T07:14:15.956Z,2.81
2023-03-06T07:16:44.123Z,2.84
2023-03-06T07:19:12.030Z,2.80
2023-03-06T07:21:40.871Z,2.73
2023-03-06T07:24:09.014Z,2.68
2023-03-06T07:26:37.861Z,2.70
2023-03-06T07:29:06.171Z,2.71
2023-03-06T07:31:35.966Z,2.60
2023-03-06T07:34:05.132Z,2.67
2023-03-06T07:36:33.520Z,2.74
2023-03-06T07:39:02.404Z,2.64
2023-03-06T07:41:30.354Z,2.70
2023-03-06T07:43:59.262Z,2.78
2023-03-06T07:46:27.535Z,2.67
2023-03-06T07:48:58.211Z,2.77
2023-03-06T07:51:29.626Z,2.60
2023-03-06T07:53:57.450Z,2.64
2023-03-06T07:56:25.772Z,2.84
2023-03-06T07:58:55.363Z,2.64
2023-03-06T08:01:25.005Z,2.65
2023-03-06T08:03:53.367Z,2.53
2023-03-06T08:06:25.277Z,2.65
2023-03-06T08:08:55.408Z,2.70
2023-03-06T08:11:25.901Z,2.57
2023-03-06T08:13:54.533Z,2.68
2023-03-06T08:16:23.423Z,2.80
2023-03-06T08:18:52.618Z,2.73
2023-03-06T08:21:25.189Z,2.85
2023-03-06T08:23:53.743Z,2.74
2023-03-06T08:26:23.822Z,2.58
2023-03-06T08:28:52.791Z,2.54
2023-03-06T08:31:30.112Z,2.51
2023-03-06T08:34:00.902Z,2.60
2023-03-06T08:36:30.548Z,2.70
2023-03-06T08:38:59.542Z,2.64
2023-03-06T08:41:28.222Z,2.61
2023-03-06T08:43:56.281Z,2.53
2023-03-06T08:46:27.152Z,2.56
2023-03-06T08:48:56.494Z,2.49
2023-03-06T08:51:25.322Z,2.65
2023-03-06T08:53:55.801Z,2.74
2023-03-06T08:56:25.276Z,2.62
2023-03-06T08:58:54.747Z,2.56
2023-03-06T09:01:24.874Z,2.65
2023-03-06T09:03:58.225Z,2.83
2023-03-06T09:06:27.360Z,2.91
2023-03-06T09:08:57.010Z,3.03
2023-03-06T09:11:27.059Z,3.06
2023-03-06T09:13:56.277Z,3.29
2023-03-06T09:16:26.213Z,3.31
2023-03-06T09:18:54.382Z,3.54
2023-03-06T09:21:25.363Z,3.34
2023-03-06T09:23:53.449Z,3.22
2023-03-06T09:26:28.001Z,3.03
2023-03-06T09:29:01.894Z,2.83
2023-03-06T09:31:31.689Z,2.84
2023-03-06T09:34:00.160Z,2.89
2023-03-06T09:36:31.409Z,3.16
2023-03-06T09:38:59.748Z,3.36
2023-03-06T09:41:34.187Z,3.15
2023-03-06T09:44:06.073Z,3.01
2023-03-06T09:46:47.776Z,3.08
2023-03-06T09:49:39.404Z,3.05
2023-03-06T09:52:22.915Z,2.98
2023-03-06T09:54:55.572Z,3.37
2023-03-06T09:57:29.198Z,3.75
2023-03-06T09:59:58.967Z,3.24
2023-03-06T10:02:34.861Z,3.05
2023-03-06T10:05:07.243Z,3.13
2023-03-06T10:07:46.086Z,3.18
2023-03-06T10:10:21.051Z,3.26
2023-03-06T10:13:04.479Z,3.33
2023-03-06T10:15:36.496Z,3.03
2023-03-06T10:18:06.334Z,3.16
2023-03-06T10:20:38.899Z,3.24
2023-03-06T10:23:22.070Z,3.16
2023-03-06T10:25:59.321Z,3.19
2023-03-06T10:28:33.282Z,3.23
2023-03-06T10:31:08.915Z,3.13
2023-03-06T10:33:48.736Z,3.16
2023-03-06T10:36:19.404Z,2.98
2023-03-06T10:38:49.007Z,3.02
2023-03-06T10:41:28.735Z,3.13
2023-03-06T10:44:23.513Z,3.26
2023-03-06T10:46:54.884Z,3.40
2023-03-06T10:49:35.023Z,3.85
2023-03-06T10:52:07.226Z,4.23
2023-03-06T10:54:36.787Z,4.58
2023-03-06T10:57:23.480Z,4.85
2023-03-06T10:59:54.872Z,4.83
2023-03-06T11:02:30.475Z,4.71
2023-03-06T11:05:01.188Z,4.93
2023-03-06T11:07:31.709Z,5.13
2023-03-06T11:10:05.598Z,5.12
2023-03-06T11:13:00.147Z,5.60
2023-03-06T11:15:30.442Z,5.01
2023-03-06T11:18:01.867Z,4.82
2023-03-06T11:20:48.888Z,4.58
2023-03-06T11:23:22.906Z,4.52
2023-03-06T11:25:57.681Z,4.90
2023-03-06T11:28:31.390Z,5.12
2023-03-06T11:31:24.044Z,5.28
2023-03-06T11:33:56.109Z,5.37
2023-03-06T11:36:30.826Z,5.19
2023-03-06T11:38:58.778Z,5.52
2023-03-06T11:41:35.136Z,5.00
2023-03-06T11:44:13.625Z,4.37
2023-03-06T11:46:49.061Z,4.06
2023-03-06T11:49:24.014Z,3.70
2023-03-06T11:51:56.814Z,3.06
2023-03-06T11:54:24.971Z,2.74
2023-03-06T11:56:59.405Z,2.68
2023-03-06T11:59:59.737Z,2.58
2023-03-06T12:02:43.490Z,2.58
2023-03-06T12:05:29.277Z,2.68
2023-03-06T12:08:09.527Z,2.85
2023-03-06T12:10:42.745Z,2.96
2023-03-06T12:13:37.345Z,3.34
2023-03-06T12:16:24.750Z,3.75
2023-03-06T12:19:06.308Z,3.99
2023-03-06T12:21:46.223Z,4.41
2023-03-06T12:24:31.923Z,4.68
2023-03-06T12:27:10.658Z,4.48
2023-03-06T12:29:50.418Z,4.78
2023-03-06T12:32:35.596Z,4.67
2023-03-06T12:35:20.011Z,4.89
2023-03-06T12:38:00.303Z,5.13
2023-03-06T12:41:00.256Z,5.38
2023-03-06T12:43:45.435Z,6.49
2023-03-06T12:46:16.319Z,6.42
2023-03-06T12:48:50.261Z,5.62
2023-03-06T12:51:22.058Z,5.13
2023-03-06T12:53:52.594Z,4.93
2023-03-06T12:56:21.864Z,5.10
2023-03-06T12:58:52.851Z,5.07
2023-03-06T13:02:01.869Z,4.99
2023-03-06T13:04:36.958Z,5.40
2023-03-06T13:07:20.239Z,5.73
2023-03-06T13:10:02.043Z,6.20
2023-03-06T13:12:55.732Z,6.16
2023-03-06T13:16:05.786Z,6.17
2023-03-06T13:19:11.974Z,6.98
2023-03-06T13:22:03.529Z,5.92
2023-03-06T13:24:37.169Z,5.21
2023-03-06T13:27:11.618Z,7.56
2023-03-06T13:29:51.514Z,7.71
2023-03-06T13:32:29.340Z,7.24
2023-03-06T13:34:57.550Z,8.20
2023-03-06T13:37:39.124Z,7.74
2023-03-06T13:40:27.414Z,8.98
2023-03-06T13:43:23.291Z,8.85
2023-03-06T13:45:51.710Z,9.75
2023-03-06T13:48:43.664Z,8.81
2023-03-06T13:51:25.099Z,7.17
2023-03-06T13:54:23.106Z,6.32
2023-03-06T13:57:28.087Z,5.72
2023-03-06T14:00:24.776Z,6.48
2023-03-06T14:03:20.685Z,6.50
2023-03-06T14:05:51.112Z,6.52
2023-03-06T14:08:19.898Z,6.48
2023-03-06T14:10:56.958Z,6.24
2023-03-06T14:13:38.407Z,5.80
2023-03-06T14:16:21.427Z,6.75
2023-03-06T14:18:51.634Z,9.11
2023-03-06T14:21:28.259Z,9.26
2023-03-06T14:24:00.647Z,12.43
2023-03-06T14:26:33.336Z,10.96
2023-03-06T14:29:04.089Z,12.24
2023-03-06T14:31:35.336Z,10.91
2023-03-06T14:34:05.220Z,11.99
2023-03-06T14:36:37.115Z,10.10
2023-03-06T14:39:11.884Z,11.71
2023-03-06T14:41:41.270Z,10.96
2023-03-06T14:44:18.012Z,9.11
2023-03-06T14:46:47.501Z,8.45
2023-03-06T14:49:16.614Z,8.15
2023-03-06T14:51:48.176Z,7.59
2023-03-06T14:54:20.040Z,7.42
2023-03-06T14:56:50.744Z,7.00
2023-03-06T14:59:26.287Z,6.83
2023-03-06T15:01:59.515Z,6.66
2023-03-06T15:04:37.139Z,6.87
2023-03-06T15:07:10.445Z,6.75
2023-03-06T15:09:40.802Z,6.34
2023-03-06T15:12:36.241Z,6.32
2023-03-06T15:15:26.825Z,6.37
2023-03-06T15:17:54.886Z,6.52
2023-03-06T15:20:42.933Z,6.14
2023-03-06T15:23:22.208Z,6.28
2023-03-06T15:25:54.340Z,6.35
2023-03-06T15:28:32.472Z,6.27
2023-03-06T15:31:21.004Z,6.35
2023-03-06T15:34:23.451Z,6.42
2023-03-06T15:36:55.808Z,6.46
2023-03-06T15:39:39.067Z,6.24
2023-03-06T15:42:19.840Z,6.17
2023-03-06T15:44:49.861Z,6.41
2023-03-06T15:47:20.342Z,6.73
2023-03-06T15:49:51.996Z,6.62
2023-03-06T15:52:21.174Z,6.44
2023-03-06T15:54:49.488Z,6.06
2023-03-06T15:57:23.184Z,5.97
2023-03-06T15:59:52.811Z,6.06
2023-03-06T16:02:24.214Z,5.58
2023-03-06T16:04:53.315Z,5.30
2023-03-06T16:07:21.614Z,5.24
2023-03-06T16:09:50.027Z,5.44
2023-03-06T16:12:20.376Z,5.34
2023-03-06T16:14:49.697Z,5.07
2023-03-06T16:17:18.751Z,5.10
2023-03-06T16:19:49.609Z,5.01
2023-03-06T16:22:18.078Z,5.01
2023-03-06T16:24:45.945Z,5.03
2023-03-06T16:27:19.253Z,4.79
2023-03-06T16:29:47.239Z,4.78
2023-03-06T16:32:15.628Z,4.68
2023-03-06T16:34:43.697Z,4.69
2023-03-06T16:37:14.362Z,4.41
2023-03-06T16:39:43.264Z,4.34
2023-03-06T16:42:11.435Z,4.34
2023-03-06T16:44:39.793Z,4.33
2023-03-06T16:47:11.675Z,4.23
2023-03-06T16:49:40.762Z,4.11
2023-03-06T16:52:11.350Z,4.18
2023-03-06T16:54:41.040Z,4.18
2023-03-06T16:57:15.082Z,4.14
2023-03-06T16:59:43.054Z,4.03
2023-03-06T17:02:11.575Z,4.02
2023-03-06T17:04:40.641Z,3.98
2023-03-06T17:07:08.605Z,3.96
2023-03-06T17:09:37.763Z,3.89
2023-03-06T17:12:07.880Z,3.92
2023-03-06T17:14:36.035Z,3.88
2023-03-06T17:17:04.527Z,3.78
2023-03-06T17:19:32.513Z,3.78
2023-03-06T17:22:00.494Z,3.63
2023-03-06T17:24:29.884Z,3.63
2023-03-06T17:26:57.962Z,3.51
2023-03-06T17:29:28.862Z,3.51
2023-03-06T17:31:56.818Z,3.50
2023-03-06T17:34:25.235Z,3.44
2023-03-06T17:36:53.599Z,3.41
2023-03-06T17:39:21.644Z,3.41
2023-03-06T17:41:49.978Z,3.33
2023-03-06T17:44:20.223Z,3.27
2023-03-06T17:46:50.009Z,3.27
2023-03-06T17:49:19.976Z,3.23
2023-03-06T17:51:47.887Z,3.24
2023-03-06T17:54:18.535Z,3.18
2023-03-06T17:56:47.296Z,3.24
2023-03-06T17:59:15.735Z,3.22
2023-03-06T18:01:45.492Z,3.29
2023-03-06T18:04:15.385Z,3.29
2023-03-06T18:06:43.752Z,3.26
2023-03-06T18:09:12.596Z,3.33
2023-03-06T18:11:41.408Z,3.36
2023-03-06T18:14:10.839Z,3.34
2023-03-06T18:16:39.017Z,3.34
2023-03-06T18:19:07.406Z,3.34
2023-03-06T18:21:37.293Z,3.33
2023-03-06T18:24:05.183Z,3.30
2023-03-06T18:26:33.093Z,3.26
2023-03-06T18:29:04.859Z,3.26
2023-03-06T18:31:35.846Z,3.30
2023-03-06T18:34:04.874Z,3.27
2023-03-06T18:36:34.064Z,3.24
2023-03-06T18:39:05.216Z,3.23
2023-03-06T18:41:33.167Z,3.20
2023-03-06T18:44:02.848Z,3.13
2023-03-06T18:46:33.691Z,3.08
2023-03-06T18:49:01.813Z,3.08
2023-03-06T18:51:30.256Z,3.03
2023-03-06T18:53:59.270Z,3.08
2023-03-06T18:56:29.477Z,2.96
2023-03-06T18:59:01.770Z,3.03
2023-03-06T19:01:31.438Z,2.99
2023-03-06T19:04:01.660Z,2.96
2023-03-06T19:06:30.794Z,3.01
2023-03-06T19:08:59.544Z,3.01
2023-03-06T19:11:32.307Z,2.98
2023-03-06T19:14:00.604Z,3.06
2023-03-06T19:16:30.499Z,3.03
2023-03-06T19:18:59.587Z,3.06
2023-03-06T19:21:29.447Z,3.08
2023-03-06T19:23:58.124Z,3.09
2023-03-06T19:26:27.419Z,3.18
2023-03-06T19:28:57.064Z,3.10
2023-03-06T19:31:26.071Z,3.13
2023-03-06T19:33:55.423Z,3.18
2023-03-06T19:36:27.423Z,3.18
2023-03-06T19:38:56.914Z,3.18
2023-03-06T19:41:25.319Z,3.15
2023-03-06T19:43:58.735Z,3.16
2023-03-06T19:46:27.445Z,3.16
2023-03-06T19:48:57.132Z,3.19
2023-03-06T19:51:26.548Z,3.26
2023-03-06T19:53:54.718Z,3.23
2023-03-06T19:56:27.763Z,3.20
2023-03-06T19:58:57.651Z,3.18
2023-03-06T20:01:28.540Z,3.19
2023-03-06T20:03:58.687Z,3.18
2023-03-06T20:06:34.015Z,3.22
2023-03-06T20:09:02.885Z,3.20
2023-03-06T20:11:31.214Z,3.26
2023-03-06T20:14:02.590Z,3.24
2023-03-06T20:16:31.255Z,3.27
2023-03-06T20:19:00.754Z,3.41
2023-03-06T20:21:30.404Z,3.41
2023-03-06T20:23:58.764Z,3.41
2023-03-06T20:26:29.046Z,3.36
2023-03-06T20:28:57.550Z,3.33
2023-03-06T20:31:29.749Z,3.27
2023-03-06T20:33:59.576Z,3.31
2023-03-06T20:36:30.570Z,3.30
2023-03-06T20:39:01.503Z,3.18
2023-03-06T20:41:34.796Z,3.19
2023-03-06T20:44:05.102Z,3.18
2023-03-06T20:46:35.154Z,3.15
2023-03-06T20:49:03.459Z,3.18
2023-03-06T20:51:33.852Z,3.24
2023-03-06T20:54:03.606Z,3.16
2023-03-06T20:56:33.797Z,3.16
2023-03-06T20:59:02.311Z,3.24
2023-03-06T21:01:32.356Z,3.20
2023-03-06T21:04:04.880Z,3.23
2023-03-06T21:06:34.172Z,3.16
2023-03-06T21:09:02.662Z,3.15
2023-03-06T21:11:32.100Z,3.18
2023-03-06T21:14:00.864Z,3.16
2023-03-06T21:16:30.420Z,3.16
2023-03-06T21:19:01.802Z,3.20
2023-03-06T21:21:33.331Z,3.16
2023-03-06T21:24:03.682Z,3.10
2023-03-06T21:26:34.816Z,3.05
2023-03-06T21:29:03.933Z,3.09
2023-03-06T21:31:33.801Z,3.05
2023-03-06T21:34:04.901Z,3.05
2023-03-06T21:36:35.846Z,2.96
2023-03-06T21:39:06.205Z,2.98
2023-03-06T21:41:34.803Z,2.94
2023-03-06T21:44:05.264Z,2.85
2023-03-06T21:46:34.472Z,2.89
2023-03-06T21:49:05.262Z,2.88
2023-03-06T21:51:34.451Z,2.92
2023-03-06T21:54:03.871Z,2.83
2023-03-06T21:56:33.871Z,2.84
2023-03-06T21:59:01.938Z,2.87
2023-03-06T22:01:30.808Z,2.83
2023-03-06T22:04:00.595Z,2.84
2023-03-06T22:06:31.679Z,2.89
2023-03-06T22:09:02.059Z,2.92
2023-03-06T22:11:31.335Z,2.88
2023-03-06T22:13:59.921Z,2.94
2023-03-06T22:16:29.230Z,2.92
2023-03-06T22:18:57.526Z,3.01
2023-03-06T22:21:29.432Z,3.01
2023-03-06T22:23:58.839Z,3.06
2023-03-06T22:26:29.115Z,3.08
2023-03-06T22:28:59.116Z,3.10
2023-03-06T22:31:29.117Z,3.13
2023-03-06T22:34:00.105Z,3.13
2023-03-06T22:36:31.379Z,3.05
2023-03-06T22:39:02.859Z,3.06
2023-03-06T22:41:32.223Z,3.09
2023-03-06T22:44:02.294Z,3.09
2023-03-06T22:46:30.758Z,3.09
2023-03-06T22:48:59.519Z,3.13
2023-03-06T22:51:30.957Z,3.18
2023-03-06T22:53:59.323Z,3.15
2023-03-06T22:56:27.315Z,3.10
2023-03-06T22:58:56.329Z,3.10
2023-03-06T23:01:26.467Z,3.09
2023-03-06T23:03:57.435Z,3.15
2023-03-06T23:06:27.326Z,3.19
2023-03-06T23:08:59.334Z,3.22
2023-03-06T23:11:28.877Z,3.20
2023-03-06T23:14:18.261Z,3.20
2023-03-06T23:17:05.120Z,3.26
2023-03-06T23:19:53.603Z,3.27
2023-03-06T23:22:40.240Z,3.26
2023-03-06T23:25:29.412Z,3.30
2023-03-06T23:27:57.401Z,3.30
2023-03-06T23:30:25.316Z,3.33
2023-03-06T23:32:54.175Z,3.26
2023-03-06T23:35:22.121Z,3.29
2023-03-06T23:37:50.553Z,3.15
2023-03-06T23:40:20.126Z,3.15
2023-03-06T23:42:49.489Z,3.13
2023-03-06T23:45:18.331Z,3.12
2023-03-06T23:47:46.285Z,3.19
2023-03-06T23:50:14.370Z,3.09
2023-03-06T23:52:43.902Z,3.10
2023-03-06T23:55:12.178Z,3.12
2023-03-06T23:57:41.120Z,3.19
